Time;durP1;ratioP1;P1;durP2;ratioP2;P2;SDS_P1;SDS_P2;PMS_P1;PMS_P2;Temp;Humidity;BMP_temperature;BMP_pressure;BME280_temperature;BME280_humidity;BME280_pressure;Samples;Min_cycle;Max_cycle;Signal;HPM_P1;HPM_P2
2021/04/17 05:29:20;;;;;;;1.75;1.00;;;17.80;32.10;;;;;;6068220;23;20180;31
2021/04/17 06:16:06;;;;;;;2.28;1.10;;;17.90;32.10;;;;;;6003093;23;20180;-77
2021/04/17 06:27:05;;;;;;;1.33;0.90;;;17.80;32.30;;;;;;4594732;23;20271;-79
2021/04/17 06:29:55;;;;;;;1.95;0.98;;;17.90;32.40;;;;;;4961865;29;20230;-79
2021/04/17 06:32:28;;;;;;;1.27;1.00;;;17.80;32.30;;;;;;4947869;29;20171;-79
2021/04/17 06:35:05;;;;;;;2.08;1.08;;;17.80;32.30;;;;;;4915415;28;20186;-79
2021/04/17 06:38:10;;;;;;;1.88;1.00;;;17.80;32.50;;;;;;4946685;29;20177;-78
2021/04/17 06:43:43;;;;;;;1.05;0.85;;;17.90;33.00;;;;;;5075405;23;20228;-78
2021/04/17 06:49:13;;;;;;;2.33;1.08;;;17.80;32.60;;;;;;5935754;23;20183;-78
2021/04/17 06:51:46;;;;;;;1.67;0.90;;;17.80;32.60;;;;;;4996245;28;20200;-78
2021/04/17 07:04:51;;;;;;;2.15;1.02;;;17.80;32.60;;;;;;5017965;23;20236;-77
2021/04/17 07:07:55;;;;;;;1.25;1.00;;;17.80;32.60;;;;;;4964462;29;20273;-77
2021/04/17 07:10:35;;;;;;;4.88;1.27;;;17.80;32.50;;;;;;4981518;28;20154;-77
2021/04/17 07:13:24;;;;;;;0.82;0.80;;;17.80;32.60;;;;;;4965486;28;20253;-78
2021/04/17 07:46:54;;;;;;;1.10;1.00;;;17.90;32.50;;;;;;5713645;23;20217;-78
2021/04/17 07:49:24;;;;;;;1.42;0.90;;;17.90;32.60;;;;;;5259946;23;20263;-78
2021/04/17 08:00:04;;;;;;;1.73;1.00;;;17.90;32.60;;;;;;5625116;23;20226;-78
2021/04/17 08:02:37;;;;;;;1.42;1.05;;;17.80;32.60;;;;;;4960724;29;20209;-79
2021/04/17 08:18:32;;;;;;;1.35;0.93;;;18.00;32.80;;;;;;5432202;23;20295;-79
2021/04/17 08:21:26;;;;;;;2.78;1.10;;;18.00;32.90;;;;;;5315829;23;20228;-78
2021/04/17 08:23:55;;;;;;;10.82;1.55;;;18.00;32.80;;;;;;4959312;28;20200;-78
2021/04/17 08:26:20;;;;;;;5.40;1.10;;;18.00;32.80;;;;;;5431745;23;20232;-78
2021/04/17 08:28:51;;;;;;;9.40;1.65;;;18.00;32.80;;;;;;5002256;23;20220;-78
2021/04/17 08:34:26;;;;;;;11.82;1.77;;;18.00;32.90;;;;;;4988841;28;20240;-78
2021/04/17 08:37:06;;;;;;;10.73;1.50;;;18.00;33.00;;;;;;4980898;28;20160;-79
2021/04/17 08:39:52;;;;;;;9.98;1.42;;;18.00;33.20;;;;;;4963760;28;20184;-78
2021/04/17 08:42:44;;;;;;;7.60;1.35;;;18.00;33.20;;;;;;4963277;28;20192;-78
2021/04/17 08:45:14;;;;;;;10.27;1.35;;;18.00;33.20;;;;;;4964139;28;20164;-78
2021/04/17 08:48:14;;;;;;;11.65;1.90;;;18.00;33.30;;;;;;4979109;28;20173;-78
2021/04/17 08:50:49;;;;;;;10.05;1.52;;;18.00;33.30;;;;;;4964703;28;20227;-79
2021/04/17 08:53:30;;;;;;;19.00;1.63;;;18.00;33.30;;;;;;4961737;28;20184;-78
2021/04/17 08:59:41;;;;;;;8.32;1.42;;;18.10;33.40;;;;;;3895934;26;20237;-79
2021/04/17 09:02:30;;;;;;;15.25;1.80;;;18.00;33.40;;;;;;4848234;29;20243;-78
2021/04/17 09:05:25;;;;;;;14.77;1.70;;;18.10;33.70;;;;;;4865180;29;20189;-77
2021/04/17 09:08:19;;;;;;;8.15;1.35;;;18.10;33.80;;;;;;4864207;29;20181;-79
2021/04/17 09:10:54;;;;;;;15.00;2.10;;;18.10;33.40;;;;;;4865815;29;20249;-77
2021/04/17 09:32:11;;;;;;;12.85;1.92;;;17.90;33.90;;;;;;5260347;23;20234;-76
2021/04/17 09:34:46;;;;;;;16.98;1.83;;;18.00;34.00;;;;;;4989717;28;20174;-76
2021/04/17 09:37:17;;;;;;;11.35;1.67;;;18.00;33.90;;;;;;4982735;28;20223;-76
2021/04/17 09:40:00;;;;;;;9.57;1.80;;;17.90;34.00;;;;;;4969023;28;20200;-77
2021/04/17 09:42:37;;;;;;;7.72;1.88;;;17.90;34.00;;;;;;4981333;29;20283;-78
2021/04/17 09:45:31;;;;;;;19.33;2.40;;;17.90;34.10;;;;;;4966078;28;20226;-78
2021/04/17 09:48:40;;;;;;;14.18;1.85;;;18.00;34.20;;;;;;4948891;29;20344;-78
2021/04/17 09:51:24;;;;;;;9.32;1.83;;;18.00;34.20;;;;;;4926853;29;20178;-78
2021/04/17 10:01:37;;;;;;;8.60;1.50;;;17.90;34.40;;;;;;5871864;23;20219;-77
2021/04/17 10:04:03;;;;;;;14.02;1.50;;;17.90;34.40;;;;;;5426262;23;20219;-77
2021/04/17 11:18:44;;;;;;;5.93;1.45;;;18.20;34.50;;;;;;5026537;23;20344;-77
2021/04/17 12:52:10;;;;;;;6.07;1.60;;;18.60;33.80;;;;;;5675787;23;20210;-77
2021/04/17 12:54:38;;;;;;;6.90;1.50;;;18.60;33.80;;;;;;4970396;28;20156;-76
2021/04/17 12:57:14;;;;;;;8.30;1.60;;;18.70;33.80;;;;;;4970359;28;20164;-77
2021/04/17 13:02:15;;;;;;;9.10;1.35;;;18.70;34.50;;;;;;5549661;23;20219;-78
2021/04/17 13:04:43;;;;;;;3.10;1.38;;;18.70;33.70;;;;;;4966457;28;20195;-77
2021/04/17 13:07:10;;;;;;;3.80;1.50;;;18.70;33.80;;;;;;4967272;28;20188;-79
2021/04/17 13:09:36;;;;;;;4.75;1.50;;;18.80;33.80;;;;;;4992703;23;20244;-77
2021/04/17 13:12:04;;;;;;;5.15;1.40;;;18.70;33.70;;;;;;4951558;28;20163;-77
2021/04/17 13:14:32;;;;;;;7.25;1.65;;;18.70;33.70;;;;;;4951650;28;20196;-77
2021/04/17 13:17:03;;;;;;;5.80;1.50;;;18.70;33.70;;;;;;4967103;28;20177;-78
2021/04/17 13:19:31;;;;;;;7.57;1.40;;;18.70;33.70;;;;;;4982265;28;20191;-78
2021/04/17 13:22:06;;;;;;;6.75;1.50;;;18.80;33.70;;;;;;4966255;28;20205;-78
2021/04/17 13:24:39;;;;;;;8.15;1.40;;;18.80;33.60;;;;;;4966588;28;20203;-79
2021/04/17 13:27:09;;;;;;;4.03;1.40;;;18.90;33.60;;;;;;4982623;28;20157;-78
2021/04/17 13:29:36;;;;;;;5.68;1.33;;;18.90;33.40;;;;;;4983116;28;20149;-80
2021/04/17 13:32:04;;;;;;;4.93;1.50;;;18.90;33.40;;;;;;4966926;28;20157;-78
2021/04/17 13:34:32;;;;;;;5.68;1.48;;;18.80;33.50;;;;;;4966808;28;20232;-78
2021/04/17 13:37:12;;;;;;;6.13;1.40;;;18.80;33.50;;;;;;4982895;28;20149;-78
2021/04/17 13:39:38;;;;;;;4.72;1.55;;;18.90;33.50;;;;;;4982318;28;20199;-81
2021/04/17 13:42:14;;;;;;;7.35;1.65;;;18.80;33.50;;;;;;4966150;28;20187;-82
2021/04/17 13:44:40;;;;;;;6.07;1.30;;;18.90;33.70;;;;;;4965284;28;20172;-81
2021/04/17 13:47:08;;;;;;;4.97;1.60;;;18.80;33.80;;;;;;4963767;28;20224;-81
2021/04/17 13:49:34;;;;;;;9.35;1.65;;;18.70;33.90;;;;;;4964309;28;20172;-82
2021/04/17 13:52:09;;;;;;;3.08;1.10;;;18.70;34.00;;;;;;4996048;28;20184;-81
2021/04/17 13:54:36;;;;;;;6.50;1.40;;;18.70;33.90;;;;;;4995580;28;20172;-81
2021/04/17 13:57:03;;;;;;;7.82;1.70;;;18.70;33.80;;;;;;4996999;28;20161;-81
2021/04/17 13:59:32;;;;;;;3.05;1.23;;;18.80;33.80;;;;;;4996425;28;20187;-81
2021/04/17 14:01:58;;;;;;;3.67;1.38;;;18.70;33.90;;;;;;4995552;28;20196;-81
2021/04/17 14:04:25;;;;;;;4.22;1.50;;;18.70;34.00;;;;;;4978899;28;20161;-82
2021/04/17 14:07:00;;;;;;;7.57;1.67;;;18.70;33.90;;;;;;4995697;28;20224;-81
2021/04/17 14:09:25;;;;;;;4.55;1.08;;;18.60;34.00;;;;;;4977288;28;20203;-81
2021/04/17 14:11:52;;;;;;;6.13;1.33;;;18.60;34.20;;;;;;4979761;28;20647;-81
2021/04/17 14:14:26;;;;;;;5.30;1.25;;;18.50;34.20;;;;;;4979342;28;20175;-81
2021/04/17 14:16:53;;;;;;;5.15;1.20;;;18.60;34.20;;;;;;4984153;28;20176;-82
2021/04/17 14:19:21;;;;;;;6.45;1.48;;;18.60;34.10;;;;;;4999090;28;20165;-81
2021/04/17 14:21:49;;;;;;;7.80;1.50;;;18.60;33.90;;;;;;4982178;28;20188;-82
2021/04/17 14:24:16;;;;;;;4.18;1.55;;;18.70;33.90;;;;;;4982293;28;20517;-82
2021/04/17 14:26:43;;;;;;;3.92;1.40;;;18.60;34.00;;;;;;4981989;28;20189;-81
2021/04/17 14:29:16;;;;;;;7.65;1.60;;;18.70;33.90;;;;;;4982307;28;20144;-82
2021/04/17 14:31:49;;;;;;;5.20;1.30;;;18.70;33.90;;;;;;4999649;28;20192;-81
2021/04/17 14:34:19;;;;;;;6.40;1.90;;;18.70;33.90;;;;;;4999240;28;20149;-81
2021/04/17 14:36:46;;;;;;;6.20;1.48;;;18.80;33.80;;;;;;4982085;28;20540;-81
2021/04/17 14:39:13;;;;;;;4.22;1.40;;;18.80;33.80;;;;;;4998460;28;20166;-81
2021/04/17 14:41:39;;;;;;;7.43;1.70;;;18.80;33.80;;;;;;4981559;28;20224;-82
2021/04/17 14:44:13;;;;;;;5.03;1.15;;;18.70;33.90;;;;;;4997581;28;20169;-81
2021/04/17 14:46:41;;;;;;;5.20;1.63;;;18.70;33.90;;;;;;4981441;28;20186;-81
2021/04/17 14:49:16;;;;;;;6.15;1.75;;;18.70;33.80;;;;;;4982318;28;20157;-82
2021/04/17 14:51:42;;;;;;;4.20;1.30;;;18.80;33.90;;;;;;4981831;28;20165;-83
2021/04/17 14:54:09;;;;;;;7.32;1.52;;;18.80;34.10;;;;;;4980981;28;20157;-81
2021/04/17 14:56:37;;;;;;;4.80;1.40;;;18.80;34.20;;;;;;4980864;28;20153;-81
2021/04/17 14:59:03;;;;;;;4.32;1.48;;;18.80;34.10;;;;;;5001231;28;20157;-80
2021/04/17 15:01:34;;;;;;;3.05;1.25;;;18.90;34.00;;;;;;4984593;28;20192;-80
2021/04/17 15:04:05;;;;;;;2.63;1.25;;;18.90;33.90;;;;;;4968178;28;20176;-81
2021/04/17 15:06:40;;;;;;;3.17;1.58;;;18.90;34.00;;;;;;4984571;28;20145;-80
2021/04/17 15:09:07;;;;;;;2.95;1.40;;;18.80;33.90;;;;;;4984399;28;20240;-80
2021/04/17 15:11:34;;;;;;;7.32;1.35;;;18.80;34.00;;;;;;4984142;28;20168;-80
2021/04/17 15:14:00;;;;;;;4.15;1.40;;;18.90;33.90;;;;;;4964434;28;20175;-81
2021/04/17 15:16:25;;;;;;;4.63;1.30;;;18.80;34.00;;;;;;4998752;28;20165;-80
2021/04/17 15:19:01;;;;;;;4.68;1.90;;;18.80;34.00;;;;;;4981203;28;20168;-80
2021/04/17 15:21:32;;;;;;;3.28;1.20;;;18.80;33.90;;;;;;4998604;28;20220;-79
2021/04/17 15:23:58;;;;;;;5.32;1.65;;;18.70;34.00;;;;;;4998792;28;20165;-79
2021/04/17 15:26:29;;;;;;;4.85;1.55;;;18.70;34.10;;;;;;4964959;28;20162;-80
2021/04/17 15:29:00;;;;;;;3.88;1.38;;;18.80;33.90;;;;;;4981481;28;20153;-81
2021/04/17 15:31:29;;;;;;;2.80;1.30;;;18.80;33.90;;;;;;4981386;28;20171;-80
2021/04/17 15:33:55;;;;;;;2.78;1.30;;;18.90;34.00;;;;;;4998021;28;20220;-80
2021/04/17 15:36:23;;;;;;;4.30;1.17;;;18.90;33.80;;;;;;4949174;28;20167;-81
2021/04/17 15:38:52;;;;;;;6.07;1.30;;;18.90;33.90;;;;;;4979924;28;20150;-81
2021/04/17 15:41:27;;;;;;;3.22;1.35;;;18.80;33.90;;;;;;4978152;28;20224;-80
2021/04/17 15:43:53;;;;;;;4.55;1.27;;;18.90;33.90;;;;;;4995266;28;20171;-81
2021/04/17 15:46:24;;;;;;;4.28;1.40;;;18.80;33.90;;;;;;4996162;28;20666;-80
2021/04/17 15:48:52;;;;;;;2.45;1.20;;;18.90;33.90;;;;;;4995409;28;20157;-80
2021/04/17 15:51:18;;;;;;;2.03;1.30;;;19.00;33.80;;;;;;4994724;28;20220;-81
2021/04/17 15:53:52;;;;;;;4.30;1.48;;;19.00;33.70;;;;;;4994977;28;20157;-80
2021/04/17 15:56:26;;;;;;;3.08;1.45;;;19.00;33.70;;;;;;4995027;28;20683;-80
2021/04/17 16:15:06;;;;;;;2.90;1.23;;;18.90;34.00;;;;;;4983117;28;20184;-80
2021/04/17 16:17:33;;;;;;;5.43;1.50;;;18.80;34.30;;;;;;4964467;28;20193;-80
2021/04/17 16:20:01;;;;;;;4.50;1.38;;;18.70;34.40;;;;;;4963111;28;20169;-80
2021/04/17 16:22:28;;;;;;;2.88;1.48;;;18.70;34.50;;;;;;4979209;28;20215;-81
2021/04/17 16:24:54;;;;;;;2.47;1.25;;;18.80;34.40;;;;;;4977670;28;20220;-81
2021/04/17 16:27:22;;;;;;;3.00;1.30;;;18.80;34.40;;;;;;4978750;28;20519;-81
2021/04/17 16:29:50;;;;;;;5.43;1.55;;;18.80;34.70;;;;;;4976657;28;20149;-80
2021/04/17 16:32:25;;;;;;;5.32;1.58;;;18.80;34.50;;;;;;4979288;28;20160;-80
2021/04/17 16:34:51;;;;;;;3.20;1.27;;;18.70;34.50;;;;;;4979228;28;20183;-80
2021/04/17 16:37:18;;;;;;;4.47;1.20;;;18.70;34.40;;;;;;4977980;28;20670;-81
2021/04/17 16:39:44;;;;;;;3.80;1.40;;;18.80;34.30;;;;;;4961330;28;20161;-81
2021/04/17 16:42:12;;;;;;;3.65;1.40;;;18.80;34.40;;;;;;4979381;28;20196;-81
2021/04/17 16:44:41;;;;;;;3.97;1.38;;;18.80;34.20;;;;;;4994642;28;20137;-80
2021/04/17 16:47:14;;;;;;;5.15;1.65;;;18.70;34.20;;;;;;4995699;28;20161;-81
2021/04/17 16:49:40;;;;;;;7.03;1.38;;;18.70;34.50;;;;;;4979413;28;20157;-80
2021/04/17 16:52:06;;;;;;;4.25;1.48;;;18.70;34.40;;;;;;5009138;23;20220;-81
2021/04/17 16:54:32;;;;;;;4.07;1.52;;;18.80;34.30;;;;;;5017983;28;20168;-81
2021/04/17 16:57:07;;;;;;;3.53;1.48;;;18.80;34.30;;;;;;5018568;28;20227;-79
2021/04/17 16:59:37;;;;;;;4.25;1.15;;;18.80;34.40;;;;;;5019298;28;20242;-78
2021/04/17 17:02:08;;;;;;;6.25;1.40;;;18.80;34.40;;;;;;5002207;28;20184;-78
2021/04/17 17:04:38;;;;;;;3.60;1.30;;;18.70;34.20;;;;;;5338750;23;20259;-77
2021/04/17 17:07:06;;;;;;;4.18;1.50;;;18.70;34.30;;;;;;4959945;29;20181;-77
2021/04/17 17:09:48;;;;;;;2.45;1.00;;;18.80;34.40;;;;;;4912706;29;20193;-78
2021/04/17 17:12:17;;;;;;;2.80;1.30;;;18.80;34.30;;;;;;5161399;23;20211;-76
2021/04/17 17:17:20;;;;;;;4.13;1.63;;;18.80;35.00;;;;;;5274653;23;20219;-79
2021/04/17 17:19:59;;;;;;;5.13;1.63;;;18.80;34.40;;;;;;4970218;28;20155;-79
2021/04/17 17:22:25;;;;;;;4.68;1.23;;;18.80;34.30;;;;;;5222617;23;20195;-78
2021/04/17 17:25:00;;;;;;;5.32;1.50;;;18.80;34.40;;;;;;4941268;28;20249;-79
2021/04/17 17:27:39;;;;;;;3.53;1.40;;;18.70;34.40;;;;;;5422042;23;20215;-77
2021/04/17 17:40:29;;;;;;;3.95;1.30;;;18.70;34.50;;;;;;6055926;23;20167;-79
2021/04/17 17:45:46;;;;;;;5.22;1.35;;;18.70;34.50;;;;;;5435490;23;20303;-78
2021/04/17 17:48:13;;;;;;;3.90;1.20;;;18.70;34.60;;;;;;5328239;23;20228;-78
2021/04/17 17:50:40;;;;;;;3.35;1.25;;;18.70;34.60;;;;;;4929942;29;20178;-78
2021/04/17 17:53:09;;;;;;;4.70;1.30;;;18.70;34.60;;;;;;5053699;23;20305;-77
2021/04/17 17:55:40;;;;;;;2.35;1.30;;;18.70;34.60;;;;;;4989195;28;20172;-77
2021/04/17 17:58:06;;;;;;;3.25;1.35;;;18.70;34.70;;;;;;5477107;23;21406;-77
2021/04/17 19:02:33;;;;;;;3.42;1.20;;;18.60;35.00;;;;;;5552164;23;20212;-78
2021/04/17 19:07:53;;;;;;;2.28;1.13;;;18.60;34.90;;;;;;5216579;23;20462;-78
2021/04/17 19:10:23;;;;;;;3.15;1.30;;;18.60;34.90;;;;;;5003972;28;20156;-78
2021/04/17 19:13:01;;;;;;;2.50;1.15;;;18.60;34.90;;;;;;4954894;28;20192;-78
2021/04/17 19:15:46;;;;;;;2.88;1.38;;;18.60;34.90;;;;;;5004084;28;20168;-78
2021/04/17 19:18:44;;;;;;;2.13;1.10;;;18.60;34.90;;;;;;5020594;28;20176;-78
2021/04/17 19:21:15;;;;;;;3.88;1.50;;;18.60;35.00;;;;;;4987630;28;20172;-77
2021/04/17 19:23:52;;;;;;;1.90;1.25;;;18.60;34.90;;;;;;4964023;29;20185;-78
2021/04/17 19:31:35;;;;;;;6.20;1.42;;;18.50;35.10;;;;;;6089799;23;20616;-75
2021/04/17 22:57:55;;;;;;;1.77;1.05;;;18.20;35.70;;;;;;5546434;23;20208;-78
